sensor_id;sensor_type;location;lat;lon;timestamp;temperature;humidity
29007;DHT22;16104;48.642;9.008;2023-05-16T01:00:31;15.20;61.30
29007;DHT22;16104;48.642;9.008;2023-05-16T01:05:27;15.10;61.50
29007;DHT22;16104;48.642;9.008;2023-05-16T01:10:23;15.10;61.70
29007;DHT22;16104;48.642;9.008;2023-05-16T01:15:28;15.10;61.70
29007;DHT22;16104;48.642;9.008;2023-05-16T02:01:39;14.70;62.30
29007;DHT22;16104;48.642;9.008;2023-05-16T02:06:35;14.70;62.50
29007;DHT22;16104;48.642;9.008;2023-05-16T02:11:31;14.70;62.50
29007;DHT22;16104;48.642;9.008;2023-05-16T03:02:14;14.10;63.60
29007;DHT22;16104;48.642;9.008;2023-05-16T03:07:10;14.10;63.90
29007;DHT22;16104;48.642;9.008;2023-05-16T03:12:06;14.10;64.10
29007;DHT22;16104;48.642;9.008;2023-05-16T03:17:01;14.00;64.30
29007;DHT22;16104;48.642;9.008;2023-05-16T03:21:57;14.00;64.50
29007;DHT22;16104;48.642;9.008;2023-05-16T03:26:52;14.00;64.60
29007;DHT22;16104;48.642;9.008;2023-05-16T03:31:48;14.00;64.70
29007;DHT22;16104;48.642;9.008;2023-05-16T03:36:43;14.00;65.10
29007;DHT22;16104;48.642;9.008;2023-05-16T03:41:39;13.90;65.20
29007;DHT22;16104;48.642;9.008;2023-05-16T03:46:35;13.90;65.40
29007;DHT22;16104;48.642;9.008;2023-05-16T03:51:30;13.90;65.50
29007;DHT22;16104;48.642;9.008;2023-05-16T03:56:27;13.90;65.50
29007;DHT22;16104;48.642;9.008;2023-05-16T04:01:23;13.90;65.70
29007;DHT22;16104;48.642;9.008;2023-05-16T04:06:18;13.90;65.90
29007;DHT22;16104;48.642;9.008;2023-05-16T04:11:13;13.90;66.10
29007;DHT22;16104;48.642;9.008;2023-05-16T04:16:09;13.90;66.20
29007;DHT22;16104;48.642;9.008;2023-05-16T04:21:04;13.90;66.40
29007;DHT22;16104;48.642;9.008;2023-05-16T04:26:00;13.90;66.50
29007;DHT22;16104;48.642;9.008;2023-05-16T04:30:56;13.90;66.50
29007;DHT22;16104;48.642;9.008;2023-05-16T04:35:51;13.90;66.40
29007;DHT22;16104;48.642;9.008;2023-05-16T04:40:48;14.00;66.50
29007;DHT22;16104;48.642;9.008;2023-05-16T04:45:45;14.00;66.70
29007;DHT22;16104;48.642;9.008;2023-05-16T04:50:41;14.00;66.80
29007;DHT22;16104;48.642;9.008;2023-05-16T04:55:36;14.00;66.70
29007;DHT22;16104;48.642;9.008;2023-05-16T05:00:32;14.10;66.70
29007;DHT22;16104;48.642;9.008;2023-05-16T05:05:28;14.10;66.60
29007;DHT22;16104;48.642;9.008;2023-05-16T05:10:23;14.10;66.70
29007;DHT22;16104;48.642;9.008;2023-05-16T05:15:19;14.20;66.60
29007;DHT22;16104;48.642;9.008;2023-05-16T05:20:14;14.20;66.60
29007;DHT22;16104;48.642;9.008;2023-05-16T05:25:10;14.20;66.60
29007;DHT22;16104;48.642;9.008;2023-05-16T05:30:06;14.20;66.50
29007;DHT22;16104;48.642;9.008;2023-05-16T05:35:02;14.20;66.60
29007;DHT22;16104;48.642;9.008;2023-05-16T05:39:58;14.20;66.50
29007;DHT22;16104;48.642;9.008;2023-05-16T05:44:53;14.30;66.60
29007;DHT22;16104;48.642;9.008;2023-05-16T05:49:49;14.30;66.50
29007;DHT22;16104;48.642;9.008;2023-05-16T05:54:46;14.30;66.60
29007;DHT22;16104;48.642;9.008;2023-05-16T05:59:41;14.30;66.40
29007;DHT22;16104;48.642;9.008;2023-05-16T06:04:37;14.30;66.40
29007;DHT22;16104;48.642;9.008;2023-05-16T06:09:33;14.30;66.30
29007;DHT22;16104;48.642;9.008;2023-05-16T06:14:28;14.40;66.40
29007;DHT22;16104;48.642;9.008;2023-05-16T06:19:24;14.30;66.30
29007;DHT22;16104;48.642;9.008;2023-05-16T06:24:20;14.30;66.30
29007;DHT22;16104;48.642;9.008;2023-05-16T06:29:15;14.40;66.40
29007;DHT22;16104;48.642;9.008;2023-05-16T06:34:11;14.40;66.30
29007;DHT22;16104;48.642;9.008;2023-05-16T06:39:07;14.50;66.30
29007;DHT22;16104;48.642;9.008;2023-05-16T06:44:02;14.50;66.20
29007;DHT22;16104;48.642;9.008;2023-05-16T06:48:59;14.50;66.10
29007;DHT22;16104;48.642;9.008;2023-05-16T06:53:54;14.50;65.90
29007;DHT22;16104;48.642;9.008;2023-05-16T06:58:50;14.60;65.80
29007;DHT22;16104;48.642;9.008;2023-05-16T07:03:45;14.60;65.70
29007;DHT22;16104;48.642;9.008;2023-05-16T07:08:41;14.60;65.70
29007;DHT22;16104;48.642;9.008;2023-05-16T07:13:36;14.70;65.60
29007;DHT22;16104;48.642;9.008;2023-05-16T07:18:32;14.70;65.40
29007;DHT22;16104;48.642;9.008;2023-05-16T07:23:27;14.60;65.30
29007;DHT22;16104;48.642;9.008;2023-05-16T07:28:23;14.70;65.20
29007;DHT22;16104;48.642;9.008;2023-05-16T07:33:18;14.60;65.20
29007;DHT22;16104;48.642;9.008;2023-05-16T07:38:14;14.60;65.20
29007;DHT22;16104;48.642;9.008;2023-05-16T07:43:09;14.60;65.10
29007;DHT22;16104;48.642;9.008;2023-05-16T07:48:05;14.60;65.20
29007;DHT22;16104;48.642;9.008;2023-05-16T07:53:00;14.60;65.10
29007;DHT22;16104;48.642;9.008;2023-05-16T07:57:56;14.60;65.50
29007;DHT22;16104;48.642;9.008;2023-05-16T08:02:51;14.60;65.70
29007;DHT22;16104;48.642;9.008;2023-05-16T08:07:47;14.70;65.50
29007;DHT22;16104;48.642;9.008;2023-05-16T08:12:43;14.70;65.20
29007;DHT22;16104;48.642;9.008;2023-05-16T08:17:38;14.80;64.90
29007;DHT22;16104;48.642;9.008;2023-05-16T08:22:34;14.80;65.20
29007;DHT22;16104;48.642;9.008;2023-05-16T08:27:30;14.80;65.20
29007;DHT22;16104;48.642;9.008;2023-05-16T08:32:25;14.90;65.20
29007;DHT22;16104;48.642;9.008;2023-05-16T08:37:21;14.90;64.70
29007;DHT22;16104;48.642;9.008;2023-05-16T08:42:16;14.90;64.80
29007;DHT22;16104;48.642;9.008;2023-05-16T08:47:17;14.90;64.60
29007;DHT22;16104;48.642;9.008;2023-05-16T08:52:16;14.90;64.70
29007;DHT22;16104;48.642;9.008;2023-05-16T08:57:13;14.80;64.60
29007;DHT22;16104;48.642;9.008;2023-05-16T09:02:10;14.80;64.50
29007;DHT22;16104;48.642;9.008;2023-05-16T09:07:05;14.80;64.40
29007;DHT22;16104;48.642;9.008;2023-05-16T09:12:01;14.80;64.80
29007;DHT22;16104;48.642;9.008;2023-05-16T09:22:01;14.80;64.90
29007;DHT22;16104;48.642;9.008;2023-05-16T09:27:07;14.80;64.60
29007;DHT22;16104;48.642;9.008;2023-05-16T09:32:13;14.80;64.60
29007;DHT22;16104;48.642;9.008;2023-05-16T09:37:10;14.80;64.70
29007;DHT22;16104;48.642;9.008;2023-05-16T09:42:10;14.80;64.70
29007;DHT22;16104;48.642;9.008;2023-05-16T09:47:06;14.90;65.00
29007;DHT22;16104;48.642;9.008;2023-05-16T09:52:03;14.90;64.80
29007;DHT22;16104;48.642;9.008;2023-05-16T09:56:58;14.90;65.10
29007;DHT22;16104;48.642;9.008;2023-05-16T10:01:57;15.00;64.70
29007;DHT22;16104;48.642;9.008;2023-05-16T10:06:56;15.10;64.40
29007;DHT22;16104;48.642;9.008;2023-05-16T10:11:54;15.20;64.40
29007;DHT22;16104;48.642;9.008;2023-05-16T10:16:51;15.30;64.50
29007;DHT22;16104;48.642;9.008;2023-05-16T10:21:50;15.40;64.50
29007;DHT22;16104;48.642;9.008;2023-05-16T10:26:47;15.50;63.90
29007;DHT22;16104;48.642;9.008;2023-05-16T10:31:43;15.60;63.40
29007;DHT22;16104;48.642;9.008;2023-05-16T10:36:39;15.70;63.40
29007;DHT22;16104;48.642;9.008;2023-05-16T10:41:35;15.70;63.20
29007;DHT22;16104;48.642;9.008;2023-05-16T10:46:31;15.80;62.90
29007;DHT22;16104;48.642;9.008;2023-05-16T10:51:34;15.80;62.90
29007;DHT22;16104;48.642;9.008;2023-05-16T10:56:32;15.70;62.90
29007;DHT22;16104;48.642;9.008;2023-05-16T11:06:52;15.60;62.60
29007;DHT22;16104;48.642;9.008;2023-05-16T11:22:21;15.50;62.40
29007;DHT22;16104;48.642;9.008;2023-05-16T11:32:21;15.50;62.70
29007;DHT22;16104;48.642;9.008;2023-05-16T11:37:17;15.40;62.60
29007;DHT22;16104;48.642;9.008;2023-05-16T11:42:14;15.30;63.00
29007;DHT22;16104;48.642;9.008;2023-05-16T11:47:10;15.30;63.50
29007;DHT22;16104;48.642;9.008;2023-05-16T11:52:07;15.20;63.70
29007;DHT22;16104;48.642;9.008;2023-05-16T11:57:03;15.10;64.10
29007;DHT22;16104;48.642;9.008;2023-05-16T12:02:02;15.10;64.30
29007;DHT22;16104;48.642;9.008;2023-05-16T12:07:00;15.00;64.40
29007;DHT22;16104;48.642;9.008;2023-05-16T12:11:56;15.00;64.80
29007;DHT22;16104;48.642;9.008;2023-05-16T12:16:52;14.90;64.50
29007;DHT22;16104;48.642;9.008;2023-05-16T12:21:51;14.90;64.60
29007;DHT22;16104;48.642;9.008;2023-05-16T12:26:47;14.90;64.80
29007;DHT22;16104;48.642;9.008;2023-05-16T12:31:42;14.90;64.80
29007;DHT22;16104;48.642;9.008;2023-05-16T12:36:38;14.90;64.80
29007;DHT22;16104;48.642;9.008;2023-05-16T12:41:39;14.90;64.80
29007;DHT22;16104;48.642;9.008;2023-05-16T12:46:40;14.90;65.10
29007;DHT22;16104;48.642;9.008;2023-05-16T12:51:36;14.90;64.80
29007;DHT22;16104;48.642;9.008;2023-05-16T12:56:31;14.90;64.30
29007;DHT22;16104;48.642;9.008;2023-05-16T13:01:27;14.80;64.10
29007;DHT22;16104;48.642;9.008;2023-05-16T13:06:22;14.80;63.90
29007;DHT22;16104;48.642;9.008;2023-05-16T13:11:18;14.70;63.80
29007;DHT22;16104;48.642;9.008;2023-05-16T13:16:13;14.60;63.70
29007;DHT22;16104;48.642;9.008;2023-05-16T13:21:09;14.50;63.70
29007;DHT22;16104;48.642;9.008;2023-05-16T13:26:05;14.40;63.80
29007;DHT22;16104;48.642;9.008;2023-05-16T13:31:00;14.30;64.00
29007;DHT22;16104;48.642;9.008;2023-05-16T13:35:56;14.20;64.00
29007;DHT22;16104;48.642;9.008;2023-05-16T13:40:51;14.10;64.30
29007;DHT22;16104;48.642;9.008;2023-05-16T13:45:47;14.00;64.10
29007;DHT22;16104;48.642;9.008;2023-05-16T13:50:42;14.00;64.10
29007;DHT22;16104;48.642;9.008;2023-05-16T13:55:38;14.00;64.10
29007;DHT22;16104;48.642;9.008;2023-05-16T14:00:34;13.90;63.90
29007;DHT22;16104;48.642;9.008;2023-05-16T14:05:29;13.90;63.80
29007;DHT22;16104;48.642;9.008;2023-05-16T14:10:25;13.90;63.90
29007;DHT22;16104;48.642;9.008;2023-05-16T14:15:21;13.80;63.80
29007;DHT22;16104;48.642;9.008;2023-05-16T14:20:16;13.80;64.00
29007;DHT22;16104;48.642;9.008;2023-05-16T14:25:12;13.80;64.40
29007;DHT22;16104;48.642;9.008;2023-05-16T14:30:08;13.80;64.40
29007;DHT22;16104;48.642;9.008;2023-05-16T14:35:04;13.90;64.20
29007;DHT22;16104;48.642;9.008;2023-05-16T14:40:00;13.90;63.90
29007;DHT22;16104;48.642;9.008;2023-05-16T14:44:55;14.00;64.10
29007;DHT22;16104;48.642;9.008;2023-05-16T14:49:51;14.00;63.90
29007;DHT22;16104;48.642;9.008;2023-05-16T14:54:48;14.10;63.90
29007;DHT22;16104;48.642;9.008;2023-05-16T14:59:43;14.20;64.10
29007;DHT22;16104;48.642;9.008;2023-05-16T15:04:39;14.30;63.50
29007;DHT22;16104;48.642;9.008;2023-05-16T15:09:34;14.40;62.90
29007;DHT22;16104;48.642;9.008;2023-05-16T15:14:30;14.40;62.30
29007;DHT22;16104;48.642;9.008;2023-05-16T15:19:26;14.50;62.30
29007;DHT22;16104;48.642;9.008;2023-05-16T15:24:21;14.50;62.10
29007;DHT22;16104;48.642;9.008;2023-05-16T15:29:17;14.60;62.20
29007;DHT22;16104;48.642;9.008;2023-05-16T15:34:14;14.60;62.20
29007;DHT22;16104;48.642;9.008;2023-05-16T15:39:09;14.60;62.50
29007;DHT22;16104;48.642;9.008;2023-05-16T15:44:05;14.70;62.30
29007;DHT22;16104;48.642;9.008;2023-05-16T15:49:00;14.80;61.80
29007;DHT22;16104;48.642;9.008;2023-05-16T15:53:56;14.90;61.80
29007;DHT22;16104;48.642;9.008;2023-05-16T15:58:54;14.90;61.50
29007;DHT22;16104;48.642;9.008;2023-05-16T16:03:49;15.00;61.20
29007;DHT22;16104;48.642;9.008;2023-05-16T16:08:45;15.00;60.70
29007;DHT22;16104;48.642;9.008;2023-05-16T16:13:41;15.10;60.50
29007;DHT22;16104;48.642;9.008;2023-05-16T16:18:36;15.10;60.20
29007;DHT22;16104;48.642;9.008;2023-05-16T16:23:32;15.10;60.00
29007;DHT22;16104;48.642;9.008;2023-05-16T16:28:27;15.20;60.10
29007;DHT22;16104;48.642;9.008;2023-05-16T16:33:23;15.30;59.70
29007;DHT22;16104;48.642;9.008;2023-05-16T16:38:18;15.30;59.30
29007;DHT22;16104;48.642;9.008;2023-05-16T16:43:14;15.30;58.90
29007;DHT22;16104;48.642;9.008;2023-05-16T16:48:09;15.20;58.60
29007;DHT22;16104;48.642;9.008;2023-05-16T16:53:05;15.10;58.50
29007;DHT22;16104;48.642;9.008;2023-05-16T16:58:01;15.00;58.40
29007;DHT22;16104;48.642;9.008;2023-05-16T17:02:58;15.00;58.30
29007;DHT22;16104;48.642;9.008;2023-05-16T17:07:53;15.00;58.30
29007;DHT22;16104;48.642;9.008;2023-05-16T17:12:49;15.00;58.30
29007;DHT22;16104;48.642;9.008;2023-05-16T17:17:45;15.00;58.20
29007;DHT22;16104;48.642;9.008;2023-05-16T17:22:41;15.00;57.90
29007;DHT22;16104;48.642;9.008;2023-05-16T17:27:36;14.90;57.90
29007;DHT22;16104;48.642;9.008;2023-05-16T17:32:32;14.90;57.40
29007;DHT22;16104;48.642;9.008;2023-05-16T17:37:28;14.90;57.50
29007;DHT22;16104;48.642;9.008;2023-05-16T17:42:23;14.90;57.40
29007;DHT22;16104;48.642;9.008;2023-05-16T17:47:19;14.90;57.20
29007;DHT22;16104;48.642;9.008;2023-05-16T17:52:14;14.90;56.90
29007;DHT22;16104;48.642;9.008;2023-05-16T17:57:10;14.90;56.60
29007;DHT22;16104;48.642;9.008;2023-05-16T18:02:06;14.90;56.30
29007;DHT22;16104;48.642;9.008;2023-05-16T18:07:04;14.90;56.00
29007;DHT22;16104;48.642;9.008;2023-05-16T18:11:59;14.80;55.90
29007;DHT22;16104;48.642;9.008;2023-05-16T18:16:55;14.80;55.80
29007;DHT22;16104;48.642;9.008;2023-05-16T18:21:51;14.80;55.60
29007;DHT22;16104;48.642;9.008;2023-05-16T18:26:47;14.80;55.60
29007;DHT22;16104;48.642;9.008;2023-05-16T18:31:43;14.70;55.10
29007;DHT22;16104;48.642;9.008;2023-05-16T18:36:39;14.70;55.00
29007;DHT22;16104;48.642;9.008;2023-05-16T18:41:34;14.70;55.00
29007;DHT22;16104;48.642;9.008;2023-05-16T18:46:30;14.70;54.60
29007;DHT22;16104;48.642;9.008;2023-05-16T18:51:25;14.60;54.40
29007;DHT22;16104;48.642;9.008;2023-05-16T18:56:21;14.50;54.30
29007;DHT22;16104;48.642;9.008;2023-05-16T19:01:17;14.50;53.90
29007;DHT22;16104;48.642;9.008;2023-05-16T19:06:16;14.40;53.60
29007;DHT22;16104;48.642;9.008;2023-05-16T19:11:11;14.30;53.50
29007;DHT22;16104;48.642;9.008;2023-05-16T19:16:07;14.30;53.30
29007;DHT22;16104;48.642;9.008;2023-05-16T19:21:03;14.20;53.10
29007;DHT22;16104;48.642;9.008;2023-05-16T19:25:59;14.10;53.40
29007;DHT22;16104;48.642;9.008;2023-05-16T19:30:54;14.00;53.20
29007;DHT22;16104;48.642;9.008;2023-05-16T19:35:50;14.00;53.20
29007;DHT22;16104;48.642;9.008;2023-05-16T19:40:47;13.90;53.10
29007;DHT22;16104;48.642;9.008;2023-05-16T19:45:42;13.80;53.80
29007;DHT22;16104;48.642;9.008;2023-05-16T19:50:38;13.80;53.00
29007;DHT22;16104;48.642;9.008;2023-05-16T19:55:35;13.70;53.10
29007;DHT22;16104;48.642;9.008;2023-05-16T20:00:31;13.60;52.50
29007;DHT22;16104;48.642;9.008;2023-05-16T20:05:26;13.60;52.80
29007;DHT22;16104;48.642;9.008;2023-05-16T20:10:22;13.50;52.70
29007;DHT22;16104;48.642;9.008;2023-05-16T20:15:18;13.40;52.70
29007;DHT22;16104;48.642;9.008;2023-05-16T20:20:13;13.40;52.70
29007;DHT22;16104;48.642;9.008;2023-05-16T20:25:09;13.30;52.70
29007;DHT22;16104;48.642;9.008;2023-05-16T20:30:06;13.30;52.70
29007;DHT22;16104;48.642;9.008;2023-05-16T20:35:02;13.20;52.50
29007;DHT22;16104;48.642;9.008;2023-05-16T20:40:03;13.10;52.50
29007;DHT22;16104;48.642;9.008;2023-05-16T20:45:00;13.10;52.50
29007;DHT22;16104;48.642;9.008;2023-05-16T20:49:55;13.10;52.70
29007;DHT22;16104;48.642;9.008;2023-05-16T20:54:51;13.00;52.60
29007;DHT22;16104;48.642;9.008;2023-05-16T20:59:46;13.00;52.70
29007;DHT22;16104;48.642;9.008;2023-05-16T21:04:42;13.00;52.50
29007;DHT22;16104;48.642;9.008;2023-05-16T21:09:37;12.90;52.60
29007;DHT22;16104;48.642;9.008;2023-05-16T21:14:33;12.90;52.50
29007;DHT22;16104;48.642;9.008;2023-05-16T21:19:29;12.80;52.70
29007;DHT22;16104;48.642;9.008;2023-05-16T21:24:28;12.70;52.70
29007;DHT22;16104;48.642;9.008;2023-05-16T21:29:24;12.70;52.70
29007;DHT22;16104;48.642;9.008;2023-05-16T21:34:20;12.60;52.50
29007;DHT22;16104;48.642;9.008;2023-05-16T21:39:15;12.60;52.70
29007;DHT22;16104;48.642;9.008;2023-05-16T21:44:11;12.50;52.60
29007;DHT22;16104;48.642;9.008;2023-05-16T21:49:11;12.50;52.70
29007;DHT22;16104;48.642;9.008;2023-05-16T21:54:07;12.50;52.70
29007;DHT22;16104;48.642;9.008;2023-05-16T21:59:02;12.40;52.70
29007;DHT22;16104;48.642;9.008;2023-05-16T22:03:58;12.40;52.60
29007;DHT22;16104;48.642;9.008;2023-05-16T22:08:53;12.30;52.70
29007;DHT22;16104;48.642;9.008;2023-05-16T22:13:49;12.30;52.70
29007;DHT22;16104;48.642;9.008;2023-05-16T22:18:44;12.20;52.70
29007;DHT22;16104;48.642;9.008;2023-05-16T22:23:40;12.20;52.80
29007;DHT22;16104;48.642;9.008;2023-05-16T22:28:36;12.10;52.80
29007;DHT22;16104;48.642;9.008;2023-05-16T22:33:31;12.10;52.70
29007;DHT22;16104;48.642;9.008;2023-05-16T22:38:27;12.00;52.80
29007;DHT22;16104;48.642;9.008;2023-05-16T22:43:22;12.00;52.80
29007;DHT22;16104;48.642;9.008;2023-05-16T22:48:18;11.90;52.80
29007;DHT22;16104;48.642;9.008;2023-05-16T22:53:13;11.90;52.90
29007;DHT22;16104;48.642;9.008;2023-05-16T22:58:09;11.80;52.90
29007;DHT22;16104;48.642;9.008;2023-05-16T23:03:04;11.80;52.90
29007;DHT22;16104;48.642;9.008;2023-05-16T23:08:00;11.70;53.00
29007;DHT22;16104;48.642;9.008;2023-05-16T23:12:57;11.70;52.90
29007;DHT22;16104;48.642;9.008;2023-05-16T23:17:52;11.60;53.00
29007;DHT22;16104;48.642;9.008;2023-05-16T23:22:48;11.60;53.10
29007;DHT22;16104;48.642;9.008;2023-05-16T23:27:43;11.50;53.20
29007;DHT22;16104;48.642;9.008;2023-05-16T23:32:39;11.40;53.30
29007;DHT22;16104;48.642;9.008;2023-05-16T23:37:34;11.40;53.50
29007;DHT22;16104;48.642;9.008;2023-05-16T23:42:30;11.30;53.60
29007;DHT22;16104;48.642;9.008;2023-05-16T23:47:25;11.30;53.70
29007;DHT22;16104;48.642;9.008;2023-05-16T23:52:21;11.20;53.80
29007;DHT22;16104;48.642;9.008;2023-05-16T23:57:16;11.20;53.90
